Time;durP1;ratioP1;P1;durP2;ratioP2;P2;SDS_P1;SDS_P2;PMS_P1;PMS_P2;Temp;Humidity;BMP_temperature;BMP_pressure;BME280_temperature;BME280_humidity;BME280_pressure;Samples;Min_cycle;Max_cycle;Signal;HPM_P1;HPM_P2
2023/03/22 00:02:24;;;;;;;42.10;23.50;;;;;;;11.68;100.00;99007.97;5089285;28;20282;-53
2023/03/22 00:05:08;;;;;;;40.50;23.73;;;;;;;11.70;100.00;99014.78;5088665;28;20237;-54
2023/03/22 00:13:53;;;;;;;49.83;28.20;;;;;;;11.69;100.00;99014.84;5085928;28;20687;-53
2023/03/22 00:23:13;;;;;;;;;;;;;;;;;;;;;
2023/03/22 00:26:05;;;;;;;51.23;27.57;;;;;;;11.44;100.00;99015.00;5087727;28;20202;-53
2023/03/22 00:28:56;;;;;;;53.53;27.83;;;;;;;11.37;100.00;99004.00;5088404;28;20211;-54
2023/03/22 00:31:54;;;;;;;44.37;27.57;;;;;;;11.49;100.00;99013.06;5088734;28;20196;-52
2023/03/22 00:35:01;;;;;;;56.07;29.03;;;;;;;11.57;100.00;99016.19;5089819;28;20187;-54
2023/03/22 00:37:47;;;;;;;51.40;27.77;;;;;;;11.61;100.00;99009.97;5087351;28;20187;-53
2023/03/22 00:43:24;;;;;;;45.37;27.23;;;;;;;11.56;100.00;99009.31;5086441;28;20214;-54
2023/03/22 00:46:14;;;;;;;59.97;27.73;;;;;;;11.57;100.00;99003.19;5085485;28;20195;-53
2023/03/22 00:49:13;;;;;;;50.07;26.80;;;;;;;11.53;100.00;99004.22;5086399;28;20607;-52
2023/03/22 00:52:20;;;;;;;45.93;26.27;;;;;;;11.51;100.00;99012.06;5089401;28;20561;-53
2023/03/22 00:58:05;;;;;;;48.50;26.03;;;;;;;11.46;100.00;99006.22;5086032;28;20199;-53
2023/03/22 01:03:48;;;;;;;50.50;27.10;;;;;;;11.34;100.00;99001.53;5087314;28;20215;-53
2023/03/22 01:06:42;;;;;;;49.57;27.07;;;;;;;11.30;100.00;98999.94;5087929;28;20195;-53
2023/03/22 01:09:41;;;;;;;46.87;25.63;;;;;;;11.23;100.00;99001.97;5066826;28;20299;-53
2023/03/22 01:12:41;;;;;;;51.53;26.83;;;;;;;11.35;100.00;98994.59;5066207;28;20188;-53
2023/03/22 01:15:31;;;;;;;46.47;25.83;;;;;;;11.32;100.00;98994.69;5066903;28;20195;-52
2023/03/22 01:18:22;;;;;;;42.67;25.90;;;;;;;11.24;100.00;98984.63;5067955;28;20296;-52
2023/03/22 01:21:14;;;;;;;39.27;22.33;;;;;;;11.16;100.00;98984.94;5066941;28;20738;-53
2023/03/22 01:24:23;;;;;;;43.83;24.60;;;;;;;11.14;100.00;98991.09;5068081;28;20290;-52
2023/03/22 01:27:32;;;;;;;45.93;24.93;;;;;;;11.06;100.00;98996.56;5068577;28;20588;-55
2023/03/22 01:30:12;;;;;;;47.97;25.57;;;;;;;10.93;100.00;98991.94;5068484;28;20277;-55
2023/03/22 01:33:08;;;;;;;46.53;26.40;;;;;;;10.93;100.00;98997.97;5068416;28;20199;-55
2023/03/22 01:35:55;;;;;;;44.17;25.83;;;;;;;10.93;100.00;99005.75;5067131;28;20203;-55
2023/03/22 01:41:46;;;;;;;52.13;27.23;;;;;;;10.94;100.00;98999.66;5065295;28;20313;-54
2023/03/22 01:44:45;;;;;;;51.97;28.47;;;;;;;10.90;100.00;99009.31;5067060;28;20245;-53
2023/03/22 01:50:33;;;;;;;41.73;22.27;;;;;;;10.84;100.00;98993.94;5064432;28;20303;-53
2023/03/22 01:53:28;;;;;;;38.23;22.67;;;;;;;10.72;100.00;98997.00;5068081;28;20192;-55
2023/03/22 01:56:10;;;;;;;38.60;21.70;;;;;;;10.62;100.00;98997.41;5067327;28;20241;-56
2023/03/22 01:58:59;;;;;;;36.67;21.47;;;;;;;10.51;100.00;98992.63;5067218;28;20192;-53
2023/03/22 02:02:03;;;;;;;38.80;22.13;;;;;;;10.45;100.00;98990.25;5067801;28;20245;-54
2023/03/22 02:05:09;;;;;;;37.17;21.63;;;;;;;10.43;100.00;98998.09;5065536;28;20199;-54
2023/03/22 02:08:13;;;;;;;46.47;22.27;;;;;;;10.45;100.00;99004.09;5075519;28;20227;-53
2023/03/22 02:11:11;;;;;;;43.17;21.37;;;;;;;10.46;100.00;98999.75;5086659;28;20239;-55
2023/03/22 02:14:16;;;;;;;40.20;22.97;;;;;;;10.37;100.00;98992.31;5087681;28;20199;-52
2023/03/22 02:17:18;;;;;;;47.70;23.90;;;;;;;10.39;100.00;99006.03;5087968;28;20195;-52
2023/03/22 02:20:30;;;;;;;35.87;21.93;;;;;;;10.34;100.00;99007.97;5085728;28;20194;-52
2023/03/22 02:23:45;;;;;;;43.10;23.13;;;;;;;10.36;100.00;99011.34;5072261;28;20675;-55
2023/03/22 02:27:14;;;;;;;40.20;23.13;;;;;;;10.31;100.00;99016.69;5065775;28;20272;-56
2023/03/22 02:30:14;;;;;;;39.40;23.93;;;;;;;10.28;100.00;99016.78;5090726;28;20210;-52
2023/03/22 02:33:30;;;;;;;40.07;23.03;;;;;;;10.39;100.00;99013.81;5091418;28;20683;-55
2023/03/22 02:36:49;;;;;;;;;;;;;;;;;;;;;
2023/03/22 02:40:05;;;;;;;37.07;23.37;;;;;;;10.44;100.00;99015.38;5090137;28;20679;-53
2023/03/22 02:43:07;;;;;;;41.10;23.20;;;;;;;10.41;100.00;99019.81;5089642;28;20199;-53
2023/03/22 02:46:12;;;;;;;39.20;23.53;;;;;;;10.30;100.00;99020.19;5090953;28;20603;-55
2023/03/22 02:49:24;;;;;;;38.07;20.33;;;;;;;10.19;100.00;99012.78;5090112;28;20274;-57
2023/03/22 02:52:28;;;;;;;40.03;22.20;;;;;;;10.05;100.00;99008.94;5090001;28;20191;-56
2023/03/22 02:55:44;;;;;;;41.47;23.77;;;;;;;10.05;100.00;99014.97;5090710;28;20693;-56
2023/03/22 02:58:42;;;;;;;40.57;22.67;;;;;;;10.00;100.00;99009.13;5089496;28;20206;-55
2023/03/22 03:01:31;;;;;;;38.77;23.97;;;;;;;10.12;100.00;99019.06;5087019;28;20191;-55
2023/03/22 03:07:23;;;;;;;41.70;24.07;;;;;;;10.18;100.00;99021.47;5089878;28;20266;-53
2023/03/22 03:10:19;;;;;;;41.77;24.33;;;;;;;10.19;100.00;99033.53;5088327;28;20305;-53
2023/03/22 03:13:32;;;;;;;39.67;23.67;;;;;;;10.15;100.00;99031.09;5087853;28;20187;-54
2023/03/22 03:16:12;;;;;;;40.57;24.57;;;;;;;9.96;100.00;99017.03;5090769;28;20203;-53
2023/03/22 03:19:17;;;;;;;39.77;24.57;;;;;;;10.04;100.00;99030.63;5091301;28;20233;-53
2023/03/22 03:22:11;;;;;;;40.30;24.30;;;;;;;10.03;100.00;99039.28;5090905;28;20558;-53
2023/03/22 03:25:17;;;;;;;43.23;25.33;;;;;;;10.02;100.00;99038.44;5090759;28;21222;-52
2023/03/22 03:28:36;;;;;;;45.03;25.13;;;;;;;10.02;100.00;99038.44;5086953;28;20195;-56
2023/03/22 03:31:37;;;;;;;40.83;25.47;;;;;;;10.08;100.00;99040.81;5088147;28;20215;-56
2023/03/22 03:34:32;;;;;;;45.37;26.63;;;;;;;10.19;100.00;99051.69;5088467;28;20221;-56
2023/03/22 03:37:23;;;;;;;43.07;26.27;;;;;;;10.16;100.00;99046.56;5089691;28;20282;-56
2023/03/22 03:40:23;;;;;;;45.17;26.23;;;;;;;10.18;100.00;99042.22;5088203;28;20195;-57
2023/03/22 03:43:21;;;;;;;39.77;24.67;;;;;;;10.22;100.00;99049.91;5088375;28;20188;-54
2023/03/22 03:46:12;;;;;;;41.87;25.63;;;;;;;10.29;100.00;99051.38;5088482;28;20578;-54
2023/03/22 03:49:28;;;;;;;39.60;25.07;;;;;;;10.29;100.00;99052.22;5089902;28;20253;-52
2023/03/22 03:55:39;;;;;;;41.00;24.70;;;;;;;10.16;100.00;99050.91;5088485;28;20570;-55
2023/03/22 03:58:31;;;;;;;37.83;24.43;;;;;;;10.10;100.00;99049.38;5090656;28;20211;-53
2023/03/22 04:01:10;;;;;;;41.13;24.87;;;;;;;10.11;100.00;99052.84;5089517;28;20690;-56
2023/03/22 04:04:14;;;;;;;41.30;26.07;;;;;;;10.08;100.00;99051.19;5086553;28;20187;-55
2023/03/22 04:06:53;;;;;;;37.93;23.37;;;;;;;10.15;100.00;99054.44;5089160;28;20194;-56
2023/03/22 04:09:32;;;;;;;41.93;23.77;;;;;;;10.07;100.00;99054.66;5049954;28;20216;-57
2023/03/22 04:12:16;;;;;;;37.67;24.70;;;;;;;10.10;100.00;99051.13;5049834;28;20232;-56
2023/03/22 04:15:06;;;;;;;39.03;23.60;;;;;;;10.19;100.00;99066.41;5049586;28;20192;-56
2023/03/22 04:17:39;;;;;;;38.03;23.30;;;;;;;10.05;100.00;99063.41;5047951;28;20215;-55
2023/03/22 04:20:22;;;;;;;38.83;22.47;;;;;;;9.93;100.00;99064.66;5047125;28;20193;-55
2023/03/22 04:23:03;;;;;;;33.33;22.07;;;;;;;9.93;100.00;99067.25;5047861;28;20661;-53
2023/03/22 04:25:49;;;;;;;34.73;23.27;;;;;;;9.79;100.00;99072.06;5049970;28;20275;-55
2023/03/22 04:28:18;;;;;;;30.77;21.30;;;;;;;9.86;100.00;99077.88;5048728;28;20688;-54
2023/03/22 04:30:56;;;;;;;31.03;21.10;;;;;;;9.87;100.00;99064.03;5048623;28;20295;-54
2023/03/22 04:33:31;;;;;;;31.03;21.27;;;;;;;9.83;100.00;99065.84;5049172;28;20746;-54
2023/03/22 04:36:04;;;;;;;37.23;22.87;;;;;;;9.94;100.00;99076.72;5047379;28;20657;-52
2023/03/22 04:38:40;;;;;;;32.57;23.17;;;;;;;9.98;100.00;99082.66;5046587;28;20204;-53
2023/03/22 04:41:19;;;;;;;37.20;23.80;;;;;;;10.04;100.00;99079.88;5045955;28;20193;-54
2023/03/22 04:44:08;;;;;;;29.80;21.10;;;;;;;10.05;100.00;99079.78;5046055;28;20680;-56
2023/03/22 04:46:41;;;;;;;31.30;21.27;;;;;;;10.08;100.00;99087.47;5047440;28;20193;-54
2023/03/22 04:58:11;;;;;;;27.83;19.70;;;;;;;10.17;100.00;99091.50;5028830;28;20205;-53
2023/03/22 05:00:44;;;;;;;28.13;19.83;;;;;;;10.29;100.00;99091.13;5030015;28;20229;-52
2023/03/22 05:03:22;;;;;;;30.80;21.27;;;;;;;10.34;100.00;99094.41;5028640;28;20533;-56
2023/03/22 05:05:58;;;;;;;26.37;19.80;;;;;;;10.36;100.00;99089.19;5034568;28;20223;-55
2023/03/22 05:08:37;;;;;;;30.90;21.33;;;;;;;10.37;100.00;99096.06;5075839;28;20277;-56
2023/03/22 05:11:19;;;;;;;28.60;20.63;;;;;;;10.26;100.00;99078.28;5087878;28;20230;-55
2023/03/22 05:13:57;;;;;;;31.43;21.80;;;;;;;10.31;100.00;99097.09;5086110;28;20258;-55
2023/03/22 05:16:34;;;;;;;31.80;22.27;;;;;;;10.33;100.00;99094.47;5085854;28;20215;-55
2023/03/22 05:19:05;;;;;;;28.17;21.43;;;;;;;10.51;100.00;99106.78;5087499;28;20604;-56
2023/03/22 05:21:39;;;;;;;30.67;21.67;;;;;;;10.57;100.00;99113.53;5088924;28;20219;-56
2023/03/22 05:24:10;;;;;;;29.40;20.53;;;;;;;10.63;100.00;99116.75;5089568;28;20254;-56
2023/03/22 05:26:41;;;;;;;28.00;19.17;;;;;;;10.76;100.00;99117.16;5088898;28;20273;-55
2023/03/22 05:29:35;;;;;;;26.67;19.37;;;;;;;10.75;100.00;99133.63;5088718;28;20821;-52
2023/03/22 05:32:03;;;;;;;26.13;19.03;;;;;;;10.65;100.00;99120.13;5089738;28;20202;-55
2023/03/22 05:34:41;;;;;;;29.97;20.17;;;;;;;10.54;100.00;99127.44;5088068;28;20708;-57
2023/03/22 05:37:33;;;;;;;25.83;20.43;;;;;;;10.62;100.00;99132.34;5084721;28;20199;-53
2023/03/22 05:43:26;;;;;;;26.10;20.13;;;;;;;10.78;100.00;99136.97;5088616;28;20202;-53
2023/03/22 05:46:32;;;;;;;26.63;20.23;;;;;;;10.76;100.00;99138.78;5090136;28;20286;-52
2023/03/22 05:59:00;;;;;;;;;;;;;;;;;;;;;
2023/03/22 06:01:45;;;;;;;24.60;18.63;;;;;;;11.20;100.00;99167.47;5080888;28;20219;-54
2023/03/22 06:04:47;;;;;;;26.17;19.23;;;;;;;11.22;100.00;99176.06;5069008;28;20255;-55
2023/03/22 06:13:56;;;;;;;37.57;25.70;;;;;;;11.20;100.00;99177.88;5080868;28;20223;-53
2023/03/22 06:16:59;;;;;;;40.50;25.77;;;;;;;11.16;100.00;99178.91;5088327;28;20305;-53
2023/03/22 06:22:45;;;;;;;41.87;26.97;;;;;;;10.96;100.00;99177.00;5088935;28;20227;-53
2023/03/22 06:25:52;;;;;;;43.57;28.40;;;;;;;10.97;100.00;99186.47;5089019;28;20211;-56
2023/03/22 06:37:57;;;;;;;44.30;28.00;;;;;;;10.98;100.00;99219.34;5085326;28;20223;-56
2023/03/22 06:47:02;;;;;;;46.53;28.27;;;;;;;10.92;100.00;99222.16;5085833;28;20307;-55
2023/03/22 06:50:21;;;;;;;;;;;;;;;;;;;;;
2023/03/22 06:53:10;;;;;;;51.47;28.77;;;;;;;10.94;100.00;99210.00;5086746;28;20520;-55
2023/03/22 06:56:19;;;;;;;46.63;29.03;;;;;;;10.96;100.00;99220.28;5087052;28;20219;-56
2023/03/22 07:02:10;;;;;;;47.30;31.30;;;;;;;11.10;100.00;99218.91;5084984;28;20219;-52
2023/03/22 07:08:24;;;;;;;54.27;33.13;;;;;;;11.11;100.00;99211.97;5086668;28;20233;-53
2023/03/22 07:14:41;;;;;;;62.87;38.00;;;;;;;11.03;100.00;99193.22;5088322;28;20223;-53
2023/03/22 07:17:26;;;;;;;63.27;37.07;;;;;;;10.99;100.00;99171.69;5089320;28;20215;-57
2023/03/22 07:20:04;;;;;;;66.87;40.30;;;;;;;10.96;100.00;99165.75;5088248;28;20218;-53
2023/03/22 07:22:57;;;;;;;61.07;39.27;;;;;;;11.07;100.00;99174.84;5088625;28;20626;-55
2023/03/22 07:25:54;;;;;;;62.50;39.20;;;;;;;11.10;100.00;99172.16;5088028;28;20306;-53
2023/03/22 07:28:59;;;;;;;57.20;35.63;;;;;;;11.22;100.00;99183.84;5090020;28;20214;-53
2023/03/22 07:31:41;;;;;;;59.37;34.00;;;;;;;11.23;100.00;99194.19;5090086;28;20227;-54
2023/03/22 07:34:37;;;;;;;53.40;33.23;;;;;;;11.28;100.00;99207.03;5088056;28;20250;-56
2023/03/22 07:37:32;;;;;;;51.53;33.10;;;;;;;11.29;100.00;99214.75;5087674;28;20215;-55
2023/03/22 07:40:19;;;;;;;58.57;34.50;;;;;;;11.35;100.00;99226.69;5089528;28;20215;-56
2023/03/22 07:46:43;;;;;;;51.17;31.93;;;;;;;11.57;100.00;99250.13;5088096;28;20590;-52
2023/03/22 07:49:30;;;;;;;55.27;33.40;;;;;;;11.51;100.00;99251.19;5087866;28;20601;-53
2023/03/22 07:52:35;;;;;;;47.27;28.77;;;;;;;11.56;100.00;99259.66;5090475;28;20310;-50
2023/03/22 08:13:56;;;;;;;47.23;30.70;;;;;;;11.77;100.00;99260.66;5089041;28;20305;-51
2023/03/22 08:16:33;;;;;;;51.67;31.00;;;;;;;11.87;100.00;99259.41;5088781;28;20702;-55
2023/03/22 08:19:42;;;;;;;50.20;30.83;;;;;;;11.93;100.00;99263.53;5082099;28;20224;-56
2023/03/22 08:22:24;;;;;;;49.00;31.03;;;;;;;11.91;100.00;99270.53;5067124;28;20212;-56
2023/03/22 08:25:13;;;;;;;46.23;31.13;;;;;;;11.94;100.00;99275.63;5084071;28;20227;-56
2023/03/22 08:27:54;;;;;;;52.90;33.10;;;;;;;11.84;100.00;99271.69;5090165;28;20219;-52
2023/03/22 08:30:37;;;;;;;58.70;34.97;;;;;;;11.83;100.00;99277.78;5086398;28;20222;-55
2023/03/22 08:33:10;;;;;;;52.40;35.13;;;;;;;11.78;100.00;99267.56;5087622;28;20219;-52
2023/03/22 08:35:59;;;;;;;58.37;34.63;;;;;;;11.85;100.00;99281.19;5088271;28;20702;-55
2023/03/22 08:38:51;;;;;;;48.33;32.03;;;;;;;11.89;100.00;99277.53;5087947;28;20673;-56
2023/03/22 08:41:27;;;;;;;52.60;35.33;;;;;;;11.95;100.00;99272.13;5090708;28;20225;-52
2023/03/22 08:44:02;;;;;;;52.27;34.10;;;;;;;12.12;100.00;99274.91;5088441;28;20218;-52
2023/03/22 08:46:57;;;;;;;53.83;35.93;;;;;;;12.23;100.00;99267.53;5089471;28;20219;-55
2023/03/22 08:50:05;;;;;;;57.97;35.77;;;;;;;12.21;100.00;99266.75;5089221;28;20605;-51
2023/03/22 08:52:47;;;;;;;60.37;35.47;;;;;;;12.39;100.00;99269.53;5090129;28;20238;-55
2023/03/22 08:55:36;;;;;;;56.90;37.20;;;;;;;12.42;100.00;99261.59;5089454;28;20223;-56
2023/03/22 08:58:36;;;;;;;57.13;35.67;;;;;;;12.60;100.00;99274.72;5089726;28;20246;-55
2023/03/22 09:04:37;;;;;;;54.73;34.77;;;;;;;12.67;100.00;99272.69;5082137;28;20214;-56
2023/03/22 09:07:30;;;;;;;63.17;39.60;;;;;;;12.63;100.00;99271.16;5069660;28;20234;-52
2023/03/22 09:10:40;;;;;;;68.07;40.53;;;;;;;12.64;100.00;99263.25;5047401;28;20593;-52
2023/03/22 09:13:39;;;;;;;61.37;36.53;;;;;;;12.69;100.00;99263.06;5049480;28;20224;-55
2023/03/22 09:16:32;;;;;;;61.63;36.50;;;;;;;12.86;100.00;99270.19;5044711;28;20252;-51
2023/03/22 09:19:09;;;;;;;61.43;37.23;;;;;;;13.00;100.00;99270.44;5047538;28;20320;-52
2023/03/22 09:21:50;;;;;;;64.43;37.93;;;;;;;13.05;100.00;99287.59;5046767;28;20195;-56
2023/03/22 09:24:34;;;;;;;59.43;39.00;;;;;;;12.87;100.00;99270.09;5044595;28;20273;-55
2023/03/22 09:27:16;;;;;;;64.10;39.47;;;;;;;12.95;100.00;99280.22;5047576;28;20203;-52
2023/03/22 09:30:12;;;;;;;63.93;39.93;;;;;;;13.14;100.00;99282.88;5046462;28;20196;-56
2023/03/22 09:32:52;;;;;;;63.30;39.67;;;;;;;13.22;100.00;99275.63;5046557;28;20270;-55
2023/03/22 09:35:39;;;;;;;64.97;39.63;;;;;;;13.26;100.00;99277.19;5046658;28;20207;-55
2023/03/22 09:38:19;;;;;;;55.50;36.73;;;;;;;13.34;100.00;99275.06;5045448;28;20199;-56
2023/03/22 09:41:01;;;;;;;56.77;36.53;;;;;;;13.32;100.00;99266.47;5046435;28;20231;-55
2023/03/22 09:43:52;;;;;;;53.03;35.60;;;;;;;13.24;100.00;99261.59;5047599;28;20219;-56
2023/03/22 09:46:46;;;;;;;55.20;35.83;;;;;;;13.22;100.00;99249.53;5048403;28;20200;-52
2023/03/22 09:53:06;;;;;;;57.33;36.73;;;;;;;13.47;100.00;99255.38;5045062;28;20220;-56
2023/03/22 09:59:25;;;;;;;45.07;30.60;;;;;;;13.77;100.00;99259.19;5047352;28;20576;-53
2023/03/22 10:06:11;;;;;;;51.03;30.83;;;;;;;13.93;100.00;99253.28;5049493;28;20200;-56
2023/03/22 10:09:03;;;;;;;40.77;27.23;;;;;;;14.10;100.00;99261.19;5070831;28;20231;-52
2023/03/22 10:12:07;;;;;;;40.93;27.60;;;;;;;14.42;100.00;99268.34;5089346;28;20309;-53
2023/03/22 10:14:57;;;;;;;45.20;28.40;;;;;;;14.60;100.00;99277.03;5089364;28;20199;-52
2023/03/22 10:17:56;;;;;;;38.67;26.77;;;;;;;14.59;100.00;99258.84;5089299;28;20286;-56
2023/03/22 10:24:22;;;;;;;37.30;27.17;;;;;;;14.48;100.00;99265.44;5088638;28;20210;-54
2023/03/22 10:27:12;;;;;;;36.07;27.83;;;;;;;14.48;100.00;99261.97;5089329;28;20195;-53
2023/03/22 10:30:12;;;;;;;36.23;25.50;;;;;;;14.62;100.00;99264.75;5088692;28;20204;-55
2023/03/22 10:33:19;;;;;;;40.47;27.63;;;;;;;14.62;100.00;99259.53;5088500;28;20219;-55
2023/03/22 10:36:10;;;;;;;45.40;28.90;;;;;;;14.92;100.00;99251.09;5088564;28;20729;-53
2023/03/22 10:45:17;;;;;;;44.70;29.57;;;;;;;15.20;100.00;99248.75;5086610;28;20701;-56
2023/03/22 10:48:37;;;;;;;42.73;29.63;;;;;;;15.33;100.00;99256.81;5088390;28;20574;-53
2023/03/22 10:51:37;;;;;;;49.30;32.43;;;;;;;15.56;100.00;99251.25;5091889;28;20191;-56
2023/03/22 10:54:36;;;;;;;50.07;34.07;;;;;;;15.75;100.00;99251.09;5092076;28;20223;-55
2023/03/22 10:57:38;;;;;;;38.37;26.97;;;;;;;15.92;100.00;99246.63;5091655;28;20256;-52
2023/03/22 11:03:43;;;;;;;31.93;24.20;;;;;;;16.10;100.00;99239.53;5088855;28;20300;-53
2023/03/22 11:06:29;;;;;;;33.80;24.90;;;;;;;16.12;100.00;99242.09;5090511;28;20582;-52
2023/03/22 11:09:36;;;;;;;26.87;22.03;;;;;;;16.19;100.00;99230.31;5090040;28;20219;-52
2023/03/22 11:12:25;;;;;;;29.67;22.53;;;;;;;16.37;100.00;99242.38;5091598;28;20215;-56
2023/03/22 11:15:08;;;;;;;29.10;20.50;;;;;;;16.36;100.00;99243.31;5089793;28;20187;-55
2023/03/22 11:17:58;;;;;;;23.53;19.60;;;;;;;16.42;100.00;99229.88;5090650;28;20674;-56
2023/03/22 11:20:57;;;;;;;20.63;16.53;;;;;;;16.41;100.00;99217.69;5088063;28;20196;-56
2023/03/22 11:23:29;;;;;;;21.13;16.10;;;;;;;16.43;100.00;99238.56;5092149;28;20191;-57
2023/03/22 11:26:22;;;;;;;20.07;15.43;;;;;;;16.40;100.00;99236.13;5091745;28;20191;-53
2023/03/22 11:29:01;;;;;;;31.03;21.27;;;;;;;16.42;100.00;99235.09;5089454;28;20195;-57
2023/03/22 11:32:03;;;;;;;26.03;18.00;;;;;;;16.50;100.00;99229.41;5089433;28;20195;-56
2023/03/22 11:35:01;;;;;;;23.27;17.43;;;;;;;16.51;100.00;99231.94;5089662;28;20251;-54
2023/03/22 11:42:05;;;;;;;19.43;16.00;;;;;;;16.13;100.00;99222.81;5091403;28;20261;-53
2023/03/22 11:44:56;;;;;;;20.37;16.83;;;;;;;16.18;100.00;99226.00;5091713;28;20732;-56
2023/03/22 11:47:49;;;;;;;26.67;17.47;;;;;;;16.33;100.00;99215.53;5089329;28;20199;-52
2023/03/22 11:50:53;;;;;;;24.40;16.93;;;;;;;16.47;100.00;99199.03;5091620;28;20272;-56
2023/03/22 11:54:03;;;;;;;24.30;17.70;;;;;;;16.31;100.00;99192.97;5091805;28;20218;-56
2023/03/22 11:57:34;;;;;;;30.57;21.17;;;;;;;16.38;100.00;99211.78;5091659;28;20586;-57
2023/03/22 12:00:19;;;;;;;25.43;18.07;;;;;;;16.39;100.00;99205.63;5086312;28;20227;-55
2023/03/22 12:03:08;;;;;;;19.90;15.23;;;;;;;16.43;99.32;99209.75;5089468;28;20290;-54
2023/03/22 12:06:20;;;;;;;16.70;13.63;;;;;;;16.41;98.88;99214.22;5090576;28;20201;-52
2023/03/22 12:12:21;;;;;;;19.00;13.40;;;;;;;16.39;98.37;99213.47;5088363;28;20234;-56
2023/03/22 12:15:47;;;;;;;;;;;;;;;;;;;;;
2023/03/22 12:18:37;;;;;;;13.93;11.33;;;;;;;16.32;96.78;99216.47;5069973;28;20210;-53
2023/03/22 12:21:19;;;;;;;16.30;11.83;;;;;;;16.38;97.89;99212.63;5082086;28;20683;-52
2023/03/22 12:23:59;;;;;;;14.23;11.80;;;;;;;16.27;100.00;99208.00;5087172;28;20314;-53
2023/03/22 12:26:36;;;;;;;16.43;11.30;;;;;;;16.04;98.58;99207.59;5087261;28;20191;-52
2023/03/22 12:29:26;;;;;;;13.27;11.90;;;;;;;16.05;99.10;99201.44;5089567;28;20191;-54
2023/03/22 12:32:08;;;;;;;16.23;13.60;;;;;;;15.92;100.00;99204.75;5087998;28;20211;-56
2023/03/22 12:34:55;;;;;;;14.30;12.80;;;;;;;15.98;100.00;99203.56;5088398;28;20191;-57
2023/03/22 12:37:44;;;;;;;15.13;12.53;;;;;;;16.09;100.00;99208.22;5089254;28;20277;-53
2023/03/22 12:40:33;;;;;;;20.63;15.27;;;;;;;16.09;100.00;99210.81;5087870;28;20203;-56
2023/03/22 12:43:22;;;;;;;15.57;12.83;;;;;;;16.03;100.00;99208.56;5088934;28;20227;-56
2023/03/22 12:46:11;;;;;;;15.63;13.80;;;;;;;16.09;100.00;99214.28;5087307;28;20198;-55
2023/03/22 12:49:02;;;;;;;14.77;10.40;;;;;;;15.93;98.68;99213.44;5082757;28;20253;-55
2023/03/22 12:51:42;;;;;;;12.47;9.87;;;;;;;15.86;99.36;99207.72;5087384;28;20187;-56
2023/03/22 12:54:27;;;;;;;16.73;10.57;;;;;;;15.89;97.90;99207.56;5087111;28;20218;-57
2023/03/22 12:57:11;;;;;;;11.23;9.40;;;;;;;15.80;96.75;99210.66;5087990;28;20197;-52
2023/03/22 13:00:00;;;;;;;13.43;10.70;;;;;;;15.90;95.94;99211.03;5088080;28;20218;-56
2023/03/22 13:02:42;;;;;;;15.73;13.07;;;;;;;15.96;96.45;99206.28;5087005;28;20194;-56
2023/03/22 13:05:27;;;;;;;15.03;11.03;;;;;;;16.00;96.95;99208.72;5087087;28;20191;-52
2023/03/22 13:08:09;;;;;;;11.13;9.90;;;;;;;16.11;96.24;99208.97;5087061;28;20282;-52
2023/03/22 13:11:07;;;;;;;10.00;8.50;;;;;;;16.19;94.27;99209.38;5087940;28;20198;-57
2023/03/22 13:13:59;;;;;;;9.83;8.83;;;;;;;16.23;94.67;99213.53;5086830;28;20251;-53
2023/03/22 13:17:08;;;;;;;12.20;8.53;;;;;;;16.31;94.86;99212.16;5089265;28;20249;-55
2023/03/22 13:20:10;;;;;;;10.27;7.67;;;;;;;16.21;94.65;99199.66;5089094;28;20203;-52
2023/03/22 13:23:12;;;;;;;9.20;7.77;;;;;;;16.29;93.23;99208.75;5087951;28;20577;-53
2023/03/22 13:26:08;;;;;;;7.70;6.90;;;;;;;16.06;91.63;99179.56;5088167;28;20241;-55
2023/03/22 13:28:59;;;;;;;8.33;7.40;;;;;;;16.06;92.74;99201.38;5087248;28;20187;-55
2023/03/22 13:31:46;;;;;;;7.67;6.90;;;;;;;15.88;92.54;99208.47;5086300;28;20763;-56
2023/03/22 13:34:41;;;;;;;9.93;8.33;;;;;;;15.80;93.34;99210.66;5086900;28;20198;-53
2023/03/22 13:37:33;;;;;;;8.53;7.83;;;;;;;15.69;94.28;99206.97;5084945;28;20195;-53
2023/03/22 13:40:15;;;;;;;8.60;7.87;;;;;;;15.59;93.86;99207.44;5087727;28;20195;-52
2023/03/22 13:43:18;;;;;;;9.73;7.00;;;;;;;15.63;94.75;99213.34;5084311;28;20198;-54
2023/03/22 13:46:38;;;;;;;8.03;7.23;;;;;;;15.68;93.93;99200.03;5088337;28;20194;-53
2023/03/22 13:49:52;;;;;;;10.93;7.43;;;;;;;15.61;94.75;99197.75;5088444;28;20578;-56
2023/03/22 13:52:57;;;;;;;8.63;7.73;;;;;;;15.55;95.42;99198.09;5051107;28;20654;-55
2023/03/22 13:56:05;;;;;;;8.57;7.77;;;;;;;15.42;95.45;99181.34;5087923;28;20283;-51
2023/03/22 13:59:02;;;;;;;8.97;8.10;;;;;;;15.47;95.13;99202.84;5086706;28;20191;-52
2023/03/22 14:01:43;;;;;;;9.13;6.93;;;;;;;15.45;94.70;99204.72;5086433;28;20621;-52
2023/03/22 14:04:40;;;;;;;8.30;6.97;;;;;;;15.47;94.51;99208.06;5088749;28;20277;-52
2023/03/22 14:07:32;;;;;;;6.83;6.20;;;;;;;15.45;94.10;99209.94;5088855;28;20230;-52
2023/03/22 14:10:31;;;;;;;7.37;6.50;;;;;;;15.53;93.80;99210.38;5088565;28;20227;-55
2023/03/22 14:19:54;;;;;;;7.87;6.63;;;;;;;15.31;96.39;99214.22;5067553;28;20286;-52
2023/03/22 14:22:55;;;;;;;13.83;8.53;;;;;;;15.30;96.76;99189.81;5069582;28;20192;-53
2023/03/22 14:29:07;;;;;;;8.73;7.90;;;;;;;15.39;97.65;99204.19;5092434;28;20221;-53
2023/03/22 14:32:15;;;;;;;15.13;11.53;;;;;;;15.26;99.30;99177.84;5092166;28;20223;-51
2023/03/22 14:35:09;;;;;;;13.27;11.87;;;;;;;15.09;100.00;99185.72;5093056;28;20198;-52
2023/03/22 14:38:13;;;;;;;13.27;11.40;;;;;;;15.05;100.00;99205.94;5093188;28;20788;-55
2023/03/22 14:41:26;;;;;;;12.47;10.53;;;;;;;14.91;100.00;99213.66;5093200;28;20203;-54
2023/03/22 14:44:37;;;;;;;16.93;11.80;;;;;;;14.75;100.00;99212.75;5091937;28;20736;-56
2023/03/22 14:47:37;;;;;;;18.57;12.63;;;;;;;14.65;100.00;99211.53;5092582;28;20261;-55
2023/03/22 14:53:45;;;;;;;16.37;11.63;;;;;;;14.58;100.00;99215.34;5090101;28;20799;-54
2023/03/22 14:59:41;;;;;;;16.50;12.43;;;;;;;14.54;100.00;99222.50;5091521;28;20209;-53
2023/03/22 15:02:37;;;;;;;15.50;12.53;;;;;;;14.34;100.00;99218.22;5089257;28;21212;-56
2023/03/22 15:05:29;;;;;;;15.93;11.83;;;;;;;14.32;100.00;99216.63;5092389;28;20203;-55
2023/03/22 15:11:50;;;;;;;;;;;;;;;;;;;;;
2023/03/22 15:14:56;;;;;;;20.07;14.00;;;;;;;13.92;100.00;99223.75;5079053;28;20215;-53
2023/03/22 15:17:45;;;;;;;18.87;14.73;;;;;;;13.76;100.00;99226.22;5087329;28;20223;-53
2023/03/22 15:20:28;;;;;;;26.40;16.67;;;;;;;13.77;100.00;99227.03;5078440;28;20234;-52
2023/03/22 15:23:17;;;;;;;21.40;17.30;;;;;;;13.64;100.00;99226.78;5090699;28;20611;-55
2023/03/22 15:26:30;;;;;;;23.30;17.53;;;;;;;13.63;100.00;99230.31;5090819;28;20226;-55
2023/03/22 15:29:20;;;;;;;29.73;20.60;;;;;;;13.58;100.00;99219.22;5091684;28;20671;-56
2023/03/22 15:32:05;;;;;;;41.80;25.00;;;;;;;13.64;100.00;99224.19;5086579;28;20891;-55
2023/03/22 15:34:43;;;;;;;43.07;26.77;;;;;;;13.59;100.00;99220.09;5071756;28;20320;-56
2023/03/22 15:37:33;;;;;;;28.63;20.00;;;;;;;13.53;100.00;99229.03;5069546;28;20234;-55
2023/03/22 15:41:00;;;;;;;21.37;14.53;;;;;;;13.44;100.00;99229.44;5073729;28;20229;-56
2023/03/22 15:44:18;;;;;;;20.57;14.97;;;;;;;13.30;100.00;99231.84;5089213;28;20191;-52
2023/03/22 15:47:37;;;;;;;;;;;;;;;;;;;;;
2023/03/22 15:50:35;;;;;;;24.33;17.93;;;;;;;13.09;100.00;99236.19;5091913;28;20203;-54
2023/03/22 16:00:24;;;;;;;21.60;16.13;;;;;;;13.13;100.00;99244.72;4352325;27;22443182;-56
2023/03/22 16:06:33;;;;;;;28.03;19.80;;;;;;;13.22;100.00;99246.94;5126163;28;20194;-52
2023/03/22 16:18:48;;;;;;;27.87;19.93;;;;;;;13.19;100.00;99252.31;5120263;28;20268;-57
2023/03/22 16:21:53;;;;;;;33.63;19.97;;;;;;;13.17;100.00;99243.72;5127481;28;20234;-56
2023/03/22 16:31:30;;;;;;;30.47;22.50;;;;;;;13.10;100.00;99266.53;5125388;28;20194;-57
2023/03/22 16:34:33;;;;;;;34.83;22.93;;;;;;;13.07;100.00;99264.94;5125719;28;20209;-54